createdAt,value
2022-10-30T00:02:37.041Z,18.90
2022-10-30T00:05:26.917Z,18.80
2022-10-30T00:08:08.044Z,18.90
2022-10-30T00:10:56.979Z,18.80
2022-10-30T00:13:38.084Z,18.80
2022-10-30T00:16:26.895Z,18.70
2022-10-30T00:19:15.034Z,18.70
2022-10-30T00:24:37.212Z,18.60
2022-10-30T00:27:24.870Z,18.50
2022-10-30T00:30:19.923Z,18.50
2022-10-30T00:33:02.671Z,18.40
2022-10-30T00:35:49.918Z,18.40
2022-10-30T00:38:31.317Z,18.30
2022-10-30T00:41:18.907Z,18.30
2022-10-30T00:44:03.344Z,18.30
2022-10-30T00:46:52.996Z,18.40
2022-10-30T00:49:37.063Z,18.40
2022-10-30T00:52:24.896Z,18.40
2022-10-30T00:55:08.993Z,18.50
2022-10-30T00:57:57.004Z,18.40
2022-10-30T01:00:53.999Z,18.30
2022-10-30T01:03:36.345Z,18.40
2022-10-30T01:06:26.916Z,18.70
2022-10-30T01:09:08.656Z,18.60
2022-10-30T01:11:55.914Z,18.40
2022-10-30T01:14:40.442Z,18.40
2022-10-30T01:17:42.916Z,18.20
2022-10-30T01:20:32.183Z,18.20
2022-10-30T01:23:25.969Z,18.10
2022-10-30T01:26:11.464Z,18.20
2022-10-30T01:29:05.895Z,18.20
2022-10-30T01:31:52.898Z,18.10
2022-10-30T01:34:45.928Z,18.10
2022-10-30T01:37:39.925Z,18.20
2022-10-30T01:40:24.137Z,18.30
2022-10-30T01:43:11.933Z,18.40
2022-10-30T01:46:11.191Z,18.60
2022-10-30T01:49:14.009Z,18.70
2022-10-30T01:52:02.165Z,18.70
2022-10-30T01:54:54.919Z,18.70
2022-10-30T01:57:43.154Z,18.70
2022-10-30T02:00:31.919Z,18.70
2022-10-30T02:03:14.089Z,18.70
2022-10-30T02:06:01.946Z,18.70
2022-10-30T02:08:43.135Z,18.70
2022-10-30T02:11:30.934Z,18.50
2022-10-30T02:14:14.060Z,18.80
2022-10-30T02:17:03.935Z,18.90
2022-10-30T02:19:58.945Z,18.80
2022-10-30T02:22:41.851Z,18.60
2022-10-30T02:25:29.989Z,18.50
2022-10-30T02:28:11.321Z,18.50
2022-10-30T02:30:58.936Z,18.50
2022-10-30T02:33:40.454Z,18.80
2022-10-30T02:36:27.943Z,18.90
2022-10-30T02:39:10.694Z,18.90
2022-10-30T02:41:57.952Z,18.90
2022-10-30T02:44:39.296Z,18.90
2022-10-30T02:47:27.046Z,18.60
2022-10-30T02:50:15.969Z,18.40
2022-10-30T02:52:59.424Z,18.10
2022-10-30T02:55:48.030Z,17.80
2022-10-30T02:58:31.134Z,17.60
2022-10-30T03:01:20.109Z,17.40
2022-10-30T03:04:04.096Z,17.40
2022-10-30T03:06:51.993Z,17.20
2022-10-30T03:09:33.211Z,17.10
2022-10-30T03:12:22.948Z,17.10
2022-10-30T03:15:10.985Z,17.20
2022-10-30T03:18:05.959Z,17.70
2022-10-30T03:20:55.953Z,17.90
2022-10-30T03:23:37.107Z,17.80
2022-10-30T03:26:24.974Z,17.70
2022-10-30T03:29:14.166Z,17.60
2022-10-30T03:32:02.075Z,17.50
2022-10-30T03:34:50.173Z,17.30
2022-10-30T03:37:37.962Z,17.20
2022-10-30T03:40:26.977Z,17.20
2022-10-30T03:43:08.617Z,17.20
2022-10-30T03:46:01.063Z,17.40
2022-10-30T03:48:42.397Z,17.60
2022-10-30T03:51:30.958Z,17.60
2022-10-30T03:54:12.297Z,17.50
2022-10-30T03:57:00.047Z,17.20
2022-10-30T03:59:52.336Z,17.30
2022-10-30T04:03:00.538Z,17.60
2022-10-30T04:05:51.001Z,17.80
2022-10-30T04:08:32.183Z,17.90
2022-10-30T04:11:26.100Z,17.80
2022-10-30T04:14:07.193Z,17.70
2022-10-30T04:16:54.965Z,17.70
2022-10-30T04:19:44.259Z,17.70
2022-10-30T04:22:25.998Z,17.50
2022-10-30T04:25:07.541Z,17.20
2022-10-30T04:27:57.295Z,17.20
2022-10-30T04:30:39.516Z,17.10
2022-10-30T04:33:29.017Z,17.00
2022-10-30T04:36:11.868Z,17.10
2022-10-30T04:38:54.016Z,17.20
2022-10-30T04:41:43.077Z,17.30
2022-10-30T04:44:30.375Z,17.00
2022-10-30T04:47:18.159Z,17.00
2022-10-30T04:49:59.420Z,16.90
2022-10-30T04:52:49.015Z,16.80
2022-10-30T04:55:30.689Z,16.80
2022-10-30T04:58:18.003Z,16.70
2022-10-30T05:01:08.552Z,16.70
2022-10-30T05:03:56.076Z,16.70
2022-10-30T05:06:46.087Z,17.10
2022-10-30T05:09:29.152Z,17.30
2022-10-30T05:12:17.011Z,17.30
2022-10-30T05:15:01.211Z,17.10
2022-10-30T05:17:52.051Z,17.30
2022-10-30T05:20:40.158Z,17.30
2022-10-30T05:23:22.107Z,17.10
2022-10-30T05:26:04.874Z,17.00
2022-10-30T05:28:52.993Z,16.90
2022-10-30T05:31:34.376Z,16.80
2022-10-30T05:34:31.042Z,17.00
2022-10-30T05:37:19.017Z,17.30
2022-10-30T05:40:01.261Z,17.30
2022-10-30T05:42:54.013Z,17.20
2022-10-30T05:45:36.236Z,17.20
2022-10-30T05:48:24.067Z,17.20
2022-10-30T05:51:06.638Z,17.20
2022-10-30T05:53:59.111Z,17.10
2022-10-30T05:56:43.203Z,17.20
2022-10-30T05:59:33.012Z,17.20
2022-10-30T06:02:14.222Z,17.20
2022-10-30T06:05:02.058Z,17.20
2022-10-30T06:07:43.144Z,17.10
2022-10-30T06:10:31.081Z,17.00
2022-10-30T06:13:18.250Z,16.90
2022-10-30T06:16:14.070Z,16.90
2022-10-30T06:19:27.027Z,17.00
2022-10-30T06:22:21.564Z,16.90
2022-10-30T06:25:17.033Z,16.60
2022-10-30T06:28:04.505Z,16.30
2022-10-30T06:30:52.047Z,16.20
2022-10-30T06:33:35.181Z,16.20
2022-10-30T06:36:25.117Z,16.30
2022-10-30T06:39:06.464Z,16.70
2022-10-30T06:42:03.123Z,16.90
2022-10-30T06:45:14.046Z,17.20
2022-10-30T06:47:55.455Z,17.00
2022-10-30T06:50:48.078Z,16.60
2022-10-30T06:53:30.194Z,16.30
2022-10-30T06:56:37.045Z,16.60
2022-10-30T06:59:48.223Z,16.90
2022-10-30T07:03:05.099Z,16.90
2022-10-30T07:05:49.207Z,16.70
2022-10-30T07:08:37.112Z,16.80
2022-10-30T07:11:21.314Z,17.00
2022-10-30T07:14:30.056Z,17.00
2022-10-30T07:17:40.044Z,17.10
2022-10-30T07:20:36.207Z,16.90
2022-10-30T07:23:19.102Z,16.60
2022-10-30T07:26:05.649Z,16.50
2022-10-30T07:29:00.065Z,16.60
2022-10-30T07:32:02.187Z,17.00
2022-10-30T07:35:04.082Z,17.20
2022-10-30T07:38:24.062Z,17.30
2022-10-30T07:41:16.406Z,17.20
2022-10-30T07:44:07.253Z,17.20
2022-10-30T07:47:14.303Z,17.20
2022-10-30T07:50:11.126Z,17.10
2022-10-30T07:52:53.196Z,17.00
2022-10-30T07:55:45.073Z,17.10
2022-10-30T07:59:02.309Z,17.20
2022-10-30T08:02:12.271Z,17.10
2022-10-30T08:05:17.272Z,17.10
2022-10-30T08:08:23.101Z,17.40
2022-10-30T08:11:30.135Z,17.50
2022-10-30T08:14:12.554Z,17.50
2022-10-30T08:17:00.086Z,17.60
2022-10-30T08:19:48.318Z,17.60
2022-10-30T08:22:30.055Z,17.60
2022-10-30T08:25:11.558Z,17.70
2022-10-30T08:28:11.082Z,17.90
2022-10-30T08:30:52.415Z,18.00
2022-10-30T08:34:00.097Z,18.10
2022-10-30T08:37:01.568Z,18.30
2022-10-30T08:39:43.202Z,18.40
2022-10-30T08:42:49.104Z,18.50
2022-10-30T08:45:32.913Z,18.50
2022-10-30T08:48:27.214Z,18.50
2022-10-30T08:51:09.439Z,18.70
2022-10-30T08:53:59.142Z,18.60
2022-10-30T08:56:40.601Z,18.70
2022-10-30T08:59:30.094Z,18.60
2022-10-30T09:02:12.953Z,19.10
2022-10-30T09:05:37.163Z,19.30
2022-10-30T09:08:38.600Z,19.60
2022-10-30T09:11:31.121Z,19.60
2022-10-30T09:14:13.557Z,19.50
2022-10-30T09:17:01.116Z,19.40
2022-10-30T09:19:59.188Z,19.40
2022-10-30T09:22:50.156Z,19.30
2022-10-30T09:25:38.230Z,19.30
2022-10-30T09:28:31.439Z,19.40
2022-10-30T09:31:42.128Z,19.40
2022-10-30T09:37:31.106Z,19.30
2022-10-30T09:40:21.143Z,19.40
2022-10-30T09:43:12.119Z,19.50
2022-10-30T09:46:00.532Z,19.70
2022-10-30T09:49:03.186Z,19.60
2022-10-30T09:51:50.264Z,19.70
2022-10-30T09:54:49.211Z,19.60
2022-10-30T09:57:34.787Z,19.70
2022-10-30T10:00:25.119Z,20.10
2022-10-30T10:03:21.779Z,20.60
2022-10-30T10:06:42.123Z,20.60
2022-10-30T10:09:52.177Z,20.50
2022-10-30T10:13:00.210Z,20.80
2022-10-30T10:15:52.162Z,21.00
2022-10-30T10:18:36.324Z,20.70
2022-10-30T10:21:29.159Z,20.70
2022-10-30T10:24:12.324Z,21.00
2022-10-30T10:27:04.191Z,21.10
2022-10-30T10:29:58.368Z,21.00
2022-10-30T10:32:54.155Z,21.20
2022-10-30T10:35:50.358Z,21.30
2022-10-30T10:38:39.215Z,21.40
2022-10-30T10:41:33.200Z,21.40
2022-10-30T10:44:23.398Z,21.20
2022-10-30T10:47:22.160Z,21.20
2022-10-30T10:50:10.376Z,21.20
2022-10-30T10:53:02.489Z,21.00
2022-10-30T10:55:45.358Z,20.90
2022-10-30T10:58:35.144Z,21.10
2022-10-30T11:01:21.648Z,21.50
2022-10-30T11:04:12.228Z,21.70
2022-10-30T11:06:56.371Z,21.40
2022-10-30T11:09:44.165Z,21.60
2022-10-30T11:12:36.161Z,21.90
2022-10-30T11:15:45.159Z,21.70
2022-10-30T11:18:28.391Z,21.70
2022-10-30T11:21:17.202Z,21.50
2022-10-30T11:24:05.244Z,21.50
2022-10-30T11:26:46.581Z,21.60
2022-10-30T11:29:37.267Z,21.70
2022-10-30T11:32:20.490Z,21.60
2022-10-30T11:35:26.264Z,21.60
2022-10-30T11:38:14.266Z,21.70
2022-10-30T11:41:04.257Z,21.90
2022-10-30T11:43:46.316Z,22.10
2022-10-30T11:46:36.231Z,22.10
2022-10-30T11:49:33.010Z,22.10
2022-10-30T11:52:22.157Z,21.90
2022-10-30T11:55:23.188Z,22.00
2022-10-30T11:58:06.285Z,21.90
2022-10-30T12:00:54.285Z,22.00
2022-10-30T12:03:36.673Z,22.30
2022-10-30T12:06:26.251Z,22.20
2022-10-30T12:09:13.704Z,22.20
2022-10-30T12:12:06.657Z,22.20
2022-10-30T12:14:47.645Z,22.10
2022-10-30T12:17:36.167Z,22.00
2022-10-30T12:20:31.174Z,22.10
2022-10-30T12:23:20.200Z,22.10
2022-10-30T12:26:03.420Z,22.00
2022-10-30T12:28:56.179Z,21.90
2022-10-30T12:31:43.414Z,21.80
2022-10-30T12:34:42.196Z,21.50
2022-10-30T12:37:25.409Z,21.60
2022-10-30T12:40:16.296Z,21.90
2022-10-30T12:43:02.441Z,21.80
2022-10-30T12:45:51.268Z,22.00
2022-10-30T12:48:37.369Z,22.20
2022-10-30T12:51:28.241Z,22.40
2022-10-30T12:54:13.428Z,22.40
2022-10-30T12:57:04.251Z,22.10
2022-10-30T12:59:58.194Z,21.90
2022-10-30T13:02:43.789Z,21.80
2022-10-30T13:05:36.241Z,22.00
2022-10-30T13:08:21.941Z,21.90
2022-10-30T13:11:14.188Z,21.90
2022-10-30T13:13:56.369Z,22.20
2022-10-30T13:16:46.223Z,22.00
2022-10-30T13:19:41.224Z,22.00
2022-10-30T13:22:31.196Z,22.00
2022-10-30T13:25:15.417Z,21.90
2022-10-30T13:28:07.242Z,21.80
2022-10-30T13:30:51.392Z,21.80
2022-10-30T13:33:44.260Z,21.60
2022-10-30T13:36:27.406Z,21.60
2022-10-30T13:39:20.297Z,21.60
2022-10-30T13:42:07.511Z,21.80
2022-10-30T13:45:04.258Z,21.90
2022-10-30T13:47:50.420Z,21.90
2022-10-30T13:50:49.209Z,22.20
2022-10-30T13:53:33.352Z,22.30
2022-10-30T13:56:23.211Z,22.30
2022-10-30T13:59:12.350Z,22.00
2022-10-30T14:02:04.441Z,22.00
2022-10-30T14:04:54.375Z,22.00
2022-10-30T14:07:46.533Z,22.10
2022-10-30T14:10:34.222Z,22.00
2022-10-30T14:13:26.691Z,21.90
2022-10-30T14:16:15.223Z,22.00
2022-10-30T14:19:20.302Z,22.00
2022-10-30T14:22:08.220Z,21.70
2022-10-30T14:24:53.488Z,21.70
2022-10-30T14:27:41.218Z,21.60
2022-10-30T14:30:25.567Z,21.60
2022-10-30T14:33:13.236Z,21.40
2022-10-30T14:36:14.443Z,21.50
2022-10-30T14:39:17.331Z,21.50
2022-10-30T14:42:07.534Z,21.50
2022-10-30T14:45:04.250Z,21.70
2022-10-30T14:47:54.526Z,21.60
2022-10-30T14:51:03.221Z,21.40
2022-10-30T14:53:55.396Z,21.40
2022-10-30T14:56:46.254Z,21.30
2022-10-30T14:59:30.467Z,21.30
2022-10-30T15:02:26.419Z,21.30
2022-10-30T15:05:20.527Z,21.30
2022-10-30T15:08:13.233Z,21.30
2022-10-30T15:10:59.511Z,21.10
2022-10-30T15:13:53.314Z,21.00
2022-10-30T15:16:36.428Z,20.80
2022-10-30T15:19:24.340Z,20.70
2022-10-30T15:22:05.450Z,20.70
2022-10-30T15:24:53.314Z,20.80
2022-10-30T15:27:35.705Z,20.90
2022-10-30T15:30:25.359Z,20.80
2022-10-30T15:33:15.321Z,20.90
2022-10-30T15:35:56.699Z,20.80
2022-10-30T15:38:44.292Z,20.60
2022-10-30T15:41:25.808Z,20.60
2022-10-30T15:44:13.423Z,20.70
2022-10-30T15:46:55.444Z,20.60
2022-10-30T15:49:47.338Z,20.60
2022-10-30T15:52:29.693Z,20.50
2022-10-30T15:55:20.293Z,20.50
2022-10-30T15:58:04.784Z,20.60
2022-10-30T16:00:52.309Z,20.50
2022-10-30T16:03:33.838Z,20.30
2022-10-30T16:06:30.291Z,20.20
2022-10-30T16:09:21.285Z,20.30
2022-10-30T16:12:04.404Z,20.60
2022-10-30T16:14:54.292Z,20.20
2022-10-30T16:17:35.407Z,20.20
2022-10-30T16:20:24.333Z,20.30
2022-10-30T16:23:07.575Z,20.30
2022-10-30T16:25:55.329Z,20.40
2022-10-30T16:28:37.649Z,20.40
2022-10-30T16:31:26.271Z,20.00
2022-10-30T16:34:08.494Z,19.80
2022-10-30T16:36:56.314Z,19.70
2022-10-30T16:39:39.501Z,19.60
2022-10-30T16:42:28.308Z,19.70
2022-10-30T16:45:34.272Z,19.90
2022-10-30T16:48:27.603Z,19.90
2022-10-30T16:51:10.331Z,19.90
2022-10-30T16:53:52.601Z,20.00
2022-10-30T16:56:45.485Z,20.00
2022-10-30T16:59:28.903Z,20.10
2022-10-30T17:02:19.465Z,20.00
2022-10-30T17:05:03.710Z,20.00
2022-10-30T17:07:52.401Z,20.00
2022-10-30T17:10:34.621Z,19.70
2022-10-30T17:13:41.346Z,19.60
2022-10-30T17:16:25.673Z,19.50
2022-10-30T17:19:14.352Z,19.30
2022-10-30T17:22:09.336Z,19.20
2022-10-30T17:24:50.732Z,19.20
2022-10-30T17:27:57.437Z,19.50
2022-10-30T17:30:39.656Z,19.30
2022-10-30T17:33:46.395Z,19.20
2022-10-30T17:36:27.866Z,19.20
2022-10-30T17:39:15.326Z,19.40
2022-10-30T17:41:58.031Z,19.40
2022-10-30T17:44:46.301Z,19.40
2022-10-30T17:47:28.333Z,19.30
2022-10-30T17:50:18.407Z,19.30
2022-10-30T17:53:00.100Z,18.90
2022-10-30T17:55:51.687Z,18.80
2022-10-30T17:58:35.820Z,18.60
2022-10-30T18:01:18.490Z,18.90
2022-10-30T18:04:07.366Z,18.80
2022-10-30T18:06:50.445Z,19.00
2022-10-30T18:09:38.321Z,18.80
2022-10-30T18:12:19.704Z,18.60
2022-10-30T18:15:07.371Z,18.60
2022-10-30T18:17:48.720Z,18.70
2022-10-30T18:20:36.334Z,19.00
2022-10-30T18:23:50.327Z,19.00
2022-10-30T18:26:30.405Z,19.30
2022-10-30T18:29:18.341Z,19.10
2022-10-30T18:31:59.566Z,18.80
2022-10-30T18:34:47.324Z,19.00
2022-10-30T18:37:28.547Z,18.90
2022-10-30T18:40:21.776Z,19.00
2022-10-30T18:43:03.563Z,19.00
2022-10-30T18:45:51.329Z,18.90
2022-10-30T18:48:32.554Z,18.90
2022-10-30T18:51:23.438Z,18.70
2022-10-30T18:54:04.517Z,18.50
2022-10-30T18:56:53.337Z,18.40
2022-10-30T18:59:41.376Z,18.60
2022-10-30T19:02:24.404Z,18.60
2022-10-30T19:05:12.445Z,18.40
2022-10-30T19:07:53.956Z,18.40
2022-10-30T19:10:42.483Z,18.40
2022-10-30T19:13:25.401Z,18.50
2022-10-30T19:16:13.334Z,18.50
2022-10-30T19:18:54.727Z,18.30
2022-10-30T19:21:42.355Z,18.30
2022-10-30T19:24:23.699Z,18.20
2022-10-30T19:27:11.403Z,18.30
2022-10-30T19:29:54.127Z,18.20
2022-10-30T19:32:41.383Z,18.30
2022-10-30T19:35:33.413Z,18.30
2022-10-30T19:38:16.619Z,18.10
2022-10-30T19:41:04.410Z,18.00
2022-10-30T19:43:45.643Z,18.20
2022-10-30T19:46:34.370Z,18.40
2022-10-30T19:49:23.593Z,18.30
2022-10-30T19:52:11.443Z,18.20
2022-10-30T19:54:52.627Z,18.10
2022-10-30T19:57:40.499Z,18.00
2022-10-30T20:00:24.380Z,17.90
2022-10-30T20:03:14.497Z,18.00
2022-10-30T20:06:03.389Z,18.20
2022-10-30T20:08:50.640Z,18.30
2022-10-30T20:11:39.900Z,18.20
2022-10-30T20:14:25.609Z,18.00
2022-10-30T20:17:19.469Z,18.30
2022-10-30T20:20:23.111Z,18.30
2022-10-30T20:23:12.356Z,18.10
2022-10-30T20:26:06.381Z,18.10
2022-10-30T20:28:48.051Z,17.90
2022-10-30T20:31:36.491Z,18.00
2022-10-30T20:34:17.741Z,18.30
2022-10-30T20:37:07.417Z,18.00
2022-10-30T20:39:49.977Z,18.10
2022-10-30T20:42:38.498Z,17.80
2022-10-30T20:45:21.126Z,17.80
2022-10-30T20:48:08.413Z,17.80
2022-10-30T20:50:50.956Z,17.60
2022-10-30T20:53:40.384Z,17.30
2022-10-30T20:56:35.414Z,17.50
2022-10-30T20:59:16.724Z,17.50
2022-10-30T21:02:04.525Z,17.40
2022-10-30T21:04:45.768Z,17.50
2022-10-30T21:07:33.417Z,17.60
2022-10-30T21:10:16.152Z,17.80
2022-10-30T21:13:07.318Z,17.70
2022-10-30T21:15:51.534Z,17.40
2022-10-30T21:18:39.392Z,17.20
2022-10-30T21:21:25.391Z,17.20
2022-10-30T21:24:06.479Z,17.60
2022-10-30T21:26:56.383Z,17.50
2022-10-30T21:29:37.778Z,17.70
2022-10-30T21:32:25.466Z,17.80
2022-10-30T21:35:07.338Z,17.50
2022-10-30T21:37:55.408Z,17.40
2022-10-30T21:40:36.758Z,17.50
2022-10-30T21:43:26.492Z,17.50
2022-10-30T21:46:08.155Z,17.40
2022-10-30T21:48:55.419Z,17.30
2022-10-30T21:51:36.899Z,17.30
2022-10-30T21:54:18.429Z,17.10
2022-10-30T21:57:06.537Z,17.20
2022-10-30T21:59:49.191Z,17.20
2022-10-30T22:02:36.408Z,17.20
2022-10-30T22:05:17.923Z,17.20
2022-10-30T22:08:05.422Z,17.00
2022-10-30T22:10:46.733Z,16.90
2022-10-30T22:13:34.426Z,16.90
2022-10-30T22:16:17.216Z,17.10
2022-10-30T22:19:04.477Z,16.90
2022-10-30T22:21:45.836Z,16.80
2022-10-30T22:24:33.439Z,16.80
2022-10-30T22:27:21.441Z,16.80
2022-10-30T22:30:02.599Z,17.20
2022-10-30T22:32:51.466Z,17.30
2022-10-30T22:35:32.692Z,17.00
2022-10-30T22:38:20.441Z,17.00
2022-10-30T22:41:01.575Z,17.00
2022-10-30T22:43:50.445Z,16.70
2022-10-30T22:46:32.647Z,16.70
2022-10-30T22:49:23.488Z,16.70
2022-10-30T22:52:11.432Z,16.70
2022-10-30T22:54:52.811Z,16.70
2022-10-30T22:57:40.419Z,16.60
2022-10-30T23:00:26.104Z,16.60
2022-10-30T23:03:13.452Z,16.60
2022-10-30T23:05:59.703Z,16.70
2022-10-30T23:08:47.501Z,16.60
2022-10-30T23:11:29.296Z,16.50
2022-10-30T23:14:17.434Z,16.50
2022-10-30T23:16:58.763Z,16.50
2022-10-30T23:19:46.476Z,16.40
2022-10-30T23:22:43.418Z,16.40
2022-10-30T23:25:24.870Z,16.80
2022-10-30T23:28:12.561Z,16.70
2022-10-30T23:30:53.915Z,16.70
2022-10-30T23:33:41.457Z,16.70
2022-10-30T23:36:22.873Z,16.50
2022-10-30T23:39:13.458Z,16.40
2022-10-30T23:41:54.820Z,16.40
2022-10-30T23:44:42.464Z,16.30
2022-10-30T23:47:42.506Z,16.30
2022-10-30T23:50:24.006Z,16.40
2022-10-30T23:53:11.445Z,16.70
2022-10-30T23:55:54.566Z,16.60
2022-10-30T23:58:42.539Z,16.70
